createdAt,value
2017-08-20T00:00:45.472Z,15.2
2017-08-20T00:01:44.538Z,15.2
2017-08-20T00:02:44.102Z,15.2
2017-08-20T00:03:43.168Z,15.2
2017-08-20T00:04:42.726Z,15.2
2017-08-20T00:05:41.547Z,15.2
2017-08-20T00:06:40.997Z,15.2
2017-08-20T00:07:40.446Z,15.2
2017-08-20T00:08:39.508Z,15.2
2017-08-20T00:09:38.953Z,15.2
2017-08-20T00:10:37.895Z,15.1
2017-08-20T00:11:37.576Z,15.1
2017-08-20T00:12:36.751Z,15.1
2017-08-20T00:13:35.826Z,15.1
2017-08-20T00:14:35.495Z,15.1
2017-08-20T00:15:34.833Z,15.2
2017-08-20T00:16:34.012Z,15.2
2017-08-20T00:17:32.949Z,15.1
2017-08-20T00:18:32.275Z,15.1
2017-08-20T00:19:31.846Z,15.1
2017-08-20T00:20:30.791Z,15.2
2017-08-20T00:21:29.993Z,15.2
2017-08-20T00:22:29.443Z,15.2
2017-08-20T00:23:29.000Z,15.2
2017-08-20T00:24:28.073Z,15.2
2017-08-20T00:25:27.256Z,15.2
2017-08-20T00:26:26.703Z,15.1
2017-08-20T00:27:25.883Z,15.1
2017-08-20T00:28:25.436Z,15.1
2017-08-20T00:28:55.806Z,15.1
2017-08-20T00:29:26.290Z,15.1
2017-08-20T00:30:23.836Z,15.1
2017-08-20T00:32:22.414Z,15.1
2017-08-20T00:33:21.359Z,15
2017-08-20T00:34:20.925Z,15
2017-08-20T00:35:19.980Z,15
2017-08-20T00:36:19.658Z,15
2017-08-20T00:37:18.720Z,15
2017-08-20T00:38:17.788Z,14.9
2017-08-20T00:38:48.275Z,14.9
2017-08-20T00:39:18.764Z,14.9
2017-08-20T00:39:49.258Z,14.9
2017-08-20T00:40:19.633Z,14.9
2017-08-20T00:40:50.117Z,14.9
2017-08-20T00:42:14.963Z,14.8
2017-08-20T00:43:14.147Z,14.8
2017-08-20T00:44:13.831Z,14.8
2017-08-20T00:45:12.897Z,14.8
2017-08-20T00:46:12.080Z,14.8
2017-08-20T00:47:11.259Z,14.8
2017-08-20T00:48:10.827Z,14.7
2017-08-20T00:49:09.999Z,14.7
2017-08-20T00:50:09.186Z,14.7
2017-08-20T00:52:07.771Z,14.6
2017-08-20T00:53:06.715Z,14.6
2017-08-20T00:54:06.273Z,14.6
2017-08-20T00:55:05.335Z,14.6
2017-08-20T00:56:04.901Z,14.6
2017-08-20T00:57:04.110Z,14.6
2017-08-20T00:58:03.180Z,14.5
2017-08-20T00:59:02.856Z,14.5
2017-08-20T01:00:01.920Z,14.5
2017-08-20T01:01:00.982Z,14.5
2017-08-20T01:02:59.558Z,14.5
2017-08-20T01:03:59.006Z,14.5
2017-08-20T01:04:58.185Z,14.4
2017-08-20T01:05:57.752Z,14.4
2017-08-20T01:06:56.931Z,14.4
2017-08-20T01:07:56.106Z,14.4
2017-08-20T01:08:55.046Z,14.4
2017-08-20T01:10:53.998Z,14.3
2017-08-20T01:11:53.063Z,14.3
2017-08-20T01:12:52.508Z,14.3
2017-08-20T01:13:51.562Z,14.3
2017-08-20T01:14:50.899Z,14.3
2017-08-20T01:15:50.144Z,14.3
2017-08-20T01:16:49.210Z,14.3
2017-08-20T01:17:48.885Z,14.3
2017-08-20T01:18:48.065Z,14.4
2017-08-20T01:19:47.136Z,14.4
2017-08-20T01:20:17.618Z,14.4
2017-08-20T01:20:47.988Z,14.4
2017-08-20T01:21:18.625Z,14.4
2017-08-20T01:22:44.862Z,14.4
2017-08-20T01:23:44.043Z,14.4
2017-08-20T01:24:43.729Z,14.4
2017-08-20T01:25:42.906Z,14.4
2017-08-20T01:26:42.086Z,14.3
2017-08-20T01:27:41.140Z,14.3
2017-08-20T01:28:40.580Z,14.3
2017-08-20T01:29:39.640Z,14.3
2017-08-20T01:31:38.582Z,14.3
2017-08-20T01:32:37.767Z,14.3
2017-08-20T01:33:36.711Z,14.3
2017-08-20T01:36:34.662Z,14.2
2017-08-20T01:37:33.727Z,14.2
2017-08-20T01:38:33.417Z,14.2
2017-08-20T01:40:31.480Z,14.2
2017-08-20T01:41:30.923Z,14.2
2017-08-20T01:42:30.487Z,14.2
2017-08-20T01:43:29.661Z,14.2
2017-08-20T01:44:28.721Z,14.2
2017-08-20T01:45:27.781Z,14.2
2017-08-20T01:46:27.460Z,14.2
2017-08-20T01:47:26.411Z,14.2
2017-08-20T01:48:25.598Z,14.2
2017-08-20T01:49:25.159Z,14.2
2017-08-20T01:50:24.216Z,14.2
2017-08-20T01:51:23.662Z,14.2
2017-08-20T01:52:22.840Z,14.2
2017-08-20T01:53:21.899Z,14.2
2017-08-20T01:54:21.573Z,14.2
2017-08-20T01:55:20.758Z,14.2
2017-08-20T01:56:19.934Z,14.2
2017-08-20T01:57:19.112Z,14.2
2017-08-20T01:58:18.285Z,14.2
2017-08-20T02:00:16.856Z,14.2
2017-08-20T02:01:16.039Z,14.2
2017-08-20T02:02:15.215Z,14.2
2017-08-20T02:03:14.888Z,14.2
2017-08-20T02:04:14.060Z,14.2
2017-08-20T02:05:13.121Z,14.2
2017-08-20T02:06:12.178Z,14.2
2017-08-20T02:06:42.547Z,14.2
2017-08-20T02:07:13.030Z,14.2
2017-08-20T02:08:10.971Z,14.2
2017-08-20T02:09:09.914Z,14.2
2017-08-20T02:10:09.489Z,14.2
2017-08-20T02:11:08.672Z,14.2
2017-08-20T02:12:07.740Z,14.2
2017-08-20T02:13:07.424Z,14.2
2017-08-20T02:14:06.483Z,14.2
2017-08-20T02:15:05.570Z,14.2
2017-08-20T02:16:05.258Z,14.2
2017-08-20T02:17:04.326Z,14.2
2017-08-20T02:18:03.497Z,14.3
2017-08-20T02:19:02.675Z,14.3
2017-08-20T02:20:01.731Z,14.3
2017-08-20T02:21:01.414Z,14.3
2017-08-20T02:22:00.477Z,14.3
2017-08-20T02:23:00.047Z,14.3
2017-08-20T02:23:58.928Z,14.3
2017-08-20T02:25:57.383Z,14.3
2017-08-20T02:26:57.071Z,14.3
2017-08-20T02:27:56.128Z,14.3
2017-08-20T02:28:55.305Z,14.3
2017-08-20T02:29:54.478Z,14.4
2017-08-20T02:30:53.655Z,14.4
2017-08-20T02:31:53.337Z,14.4
2017-08-20T02:32:52.280Z,14.4
2017-08-20T02:33:51.458Z,14.4
2017-08-20T02:34:51.139Z,14.4
2017-08-20T02:36:49.196Z,14.4
2017-08-20T02:37:48.870Z,14.4
2017-08-20T02:38:48.055Z,14.5
2017-08-20T02:39:47.811Z,14.5
2017-08-20T02:41:45.637Z,14.5
2017-08-20T02:42:44.703Z,14.6
2017-08-20T02:43:44.140Z,14.5
2017-08-20T02:44:43.320Z,14.5
2017-08-20T02:45:43.457Z,14.5
2017-08-20T02:46:41.771Z,14.5
2017-08-20T02:51:38.394Z,14.5
2017-08-20T02:52:37.569Z,14.6
2017-08-20T02:53:36.752Z,14.6
2017-08-20T02:54:35.938Z,14.6
2017-08-20T02:55:35.129Z,14.6
2017-08-20T02:57:33.463Z,14.6
2017-08-20T02:58:33.156Z,14.6
2017-08-20T02:59:32.220Z,14.6
2017-08-20T03:00:31.280Z,14.6
2017-08-20T03:01:30.837Z,14.6
2017-08-20T03:03:29.414Z,14.6
2017-08-20T03:04:28.472Z,14.6
2017-08-20T03:05:28.034Z,14.6
2017-08-20T03:06:27.092Z,14.6
2017-08-20T03:07:26.143Z,14.5
2017-08-20T03:08:25.705Z,14.5
2017-08-20T03:08:56.078Z,14.5
2017-08-20T03:09:26.468Z,14.5
2017-08-20T03:09:56.856Z,14.5
2017-08-20T03:12:22.488Z,14.5
2017-08-20T03:13:22.051Z,14.5
2017-08-20T03:15:20.618Z,14.5
2017-08-20T03:16:19.792Z,14.5
2017-08-20T03:17:18.968Z,14.5
2017-08-20T03:18:18.178Z,14.5
2017-08-20T03:19:17.616Z,14.4
2017-08-20T03:21:15.830Z,14.4
2017-08-20T03:22:15.393Z,14.4
2017-08-20T03:24:13.961Z,14.4
2017-08-20T03:25:13.137Z,14.4
2017-08-20T03:26:12.318Z,14.4
2017-08-20T03:27:11.494Z,14.3
2017-08-20T03:28:11.060Z,14.3
2017-08-20T03:30:09.134Z,14.3
2017-08-20T03:31:08.710Z,14.3
2017-08-20T03:32:07.770Z,14.3
2017-08-20T03:33:07.104Z,14.2
2017-08-20T03:36:05.070Z,14.2
2017-08-20T03:37:04.013Z,14.1
2017-08-20T03:38:03.582Z,14.1
2017-08-20T03:38:34.091Z,14.1
2017-08-20T03:39:04.580Z,14.1
2017-08-20T03:39:35.068Z,14.1
2017-08-20T03:41:01.300Z,14
2017-08-20T03:42:00.372Z,14
2017-08-20T03:42:59.325Z,14
2017-08-20T03:43:58.884Z,14
2017-08-20T03:45:57.326Z,14
2017-08-20T03:46:56.507Z,14
2017-08-20T03:47:56.184Z,14
2017-08-20T03:48:55.247Z,14
2017-08-20T03:49:54.421Z,14
2017-08-20T03:50:53.476Z,13.9
2017-08-20T03:51:53.034Z,13.9
2017-08-20T03:52:52.088Z,13.9
2017-08-20T03:53:51.667Z,13.9
2017-08-20T03:54:51.420Z,13.9
2017-08-20T03:55:50.097Z,13.9
2017-08-20T03:56:49.282Z,13.9
2017-08-20T03:57:48.728Z,13.9
2017-08-20T03:59:46.786Z,13.9
2017-08-20T04:00:46.467Z,13.9
2017-08-20T04:01:45.653Z,13.9
2017-08-20T04:02:44.833Z,13.9
2017-08-20T04:03:43.772Z,13.9
2017-08-20T04:06:41.729Z,13.9
2017-08-20T04:07:40.789Z,13.9
2017-08-20T04:08:40.356Z,13.9
2017-08-20T04:09:39.414Z,13.9
2017-08-20T04:10:38.472Z,13.9
2017-08-20T04:11:38.029Z,13.9
2017-08-20T04:12:37.089Z,13.9
2017-08-20T04:13:36.261Z,13.9
2017-08-20T04:14:35.824Z,13.9
2017-08-20T04:16:34.396Z,13.9
2017-08-20T04:17:33.726Z,13.9
2017-08-20T04:18:32.670Z,13.9
2017-08-20T04:19:31.720Z,13.8
2017-08-20T04:20:31.291Z,13.8
2017-08-20T04:21:30.612Z,13.8
2017-08-20T04:22:29.552Z,13.8
2017-08-20T04:23:28.883Z,13.9
2017-08-20T04:24:28.070Z,13.9
2017-08-20T04:26:26.712Z,13.8
2017-08-20T04:27:25.888Z,13.8
2017-08-20T04:32:22.116Z,13.8
2017-08-20T04:33:21.288Z,13.8
2017-08-20T04:34:20.506Z,13.8
2017-08-20T04:35:20.208Z,13.8
2017-08-20T04:36:19.379Z,13.8
2017-08-20T04:37:18.552Z,13.8
2017-08-20T04:38:17.610Z,13.8
2017-08-20T04:39:16.793Z,13.8
2017-08-20T04:40:15.850Z,13.8
2017-08-20T04:41:15.534Z,13.8
2017-08-20T04:42:14.709Z,13.8
2017-08-20T04:43:13.887Z,13.8
2017-08-20T04:45:12.453Z,13.8
2017-08-20T04:46:11.508Z,13.7
2017-08-20T04:47:10.689Z,13.7
2017-08-20T04:48:10.247Z,13.7
2017-08-20T04:49:09.189Z,13.7
2017-08-20T04:51:07.765Z,13.7
2017-08-20T04:53:06.334Z,13.7
2017-08-20T04:54:05.515Z,13.7
2017-08-20T04:55:04.956Z,13.7
2017-08-20T04:56:04.015Z,13.7
2017-08-20T04:57:03.077Z,13.7
2017-08-20T04:59:01.784Z,13.7
2017-08-20T05:00:01.349Z,13.7
2017-08-20T05:01:00.409Z,13.7
2017-08-20T05:01:59.588Z,13.7
2017-08-20T05:02:58.649Z,13.7
2017-08-20T05:03:58.329Z,13.7
2017-08-20T05:04:57.397Z,13.7
2017-08-20T05:05:56.591Z,13.7
2017-08-20T05:06:55.779Z,13.7
2017-08-20T05:07:54.842Z,13.8
2017-08-20T05:09:53.790Z,13.8
2017-08-20T05:10:52.968Z,13.8
2017-08-20T05:12:51.540Z,13.8
2017-08-20T05:13:50.606Z,13.8
2017-08-20T05:14:49.662Z,13.8
2017-08-20T05:15:48.840Z,13.9
2017-08-20T05:16:48.520Z,13.8
2017-08-20T05:18:46.966Z,13.9
2017-08-20T05:20:45.048Z,13.9
2017-08-20T05:22:43.492Z,13.9
2017-08-20T05:23:42.932Z,13.9
2017-08-20T05:24:42.006Z,13.9
2017-08-20T05:25:41.338Z,13.9
2017-08-20T05:26:40.661Z,13.9
2017-08-20T05:27:39.730Z,13.9
2017-08-20T05:28:39.414Z,13.9
2017-08-20T05:29:38.354Z,13.9
2017-08-20T05:31:36.684Z,14
2017-08-20T05:32:36.249Z,14
2017-08-20T05:33:35.189Z,14
2017-08-20T05:34:34.879Z,14
2017-08-20T05:35:34.052Z,14
2017-08-20T05:36:33.224Z,14
2017-08-20T05:37:32.552Z,14
2017-08-20T05:38:31.614Z,14.1
2017-08-20T05:39:31.055Z,14
2017-08-20T05:40:30.377Z,14.1
2017-08-20T05:41:29.557Z,14.1
2017-08-20T05:42:28.626Z,14.1
2017-08-20T05:43:27.802Z,14.1
2017-08-20T05:44:26.990Z,14.1
2017-08-20T05:45:26.165Z,14.1
2017-08-20T05:46:25.844Z,14.1
2017-08-20T05:47:24.907Z,14.1
2017-08-20T05:48:24.084Z,14.1
2017-08-20T05:49:23.271Z,14.2
2017-08-20T05:50:22.441Z,14.2
2017-08-20T05:51:22.006Z,14.2
2017-08-20T05:52:20.946Z,14.2
2017-08-20T05:53:20.128Z,14.2
2017-08-20T05:54:19.818Z,14.2
2017-08-20T05:55:19.001Z,14.3
2017-08-20T05:56:17.936Z,14.3
2017-08-20T05:57:16.998Z,14.3
2017-08-20T05:58:16.566Z,14.4
2017-08-20T05:59:15.737Z,14.4
2017-08-20T06:00:15.304Z,14.4
2017-08-20T06:01:14.478Z,14.4
2017-08-20T06:02:13.424Z,14.4
2017-08-20T06:03:12.599Z,14.5
2017-08-20T06:04:12.161Z,14.4
2017-08-20T06:05:11.226Z,14.5
2017-08-20T06:06:10.409Z,14.5
2017-08-20T06:07:09.587Z,14.5
2017-08-20T06:08:09.276Z,14.5
2017-08-20T06:09:08.332Z,14.5
2017-08-20T06:10:07.777Z,14.6
2017-08-20T06:11:06.720Z,14.7
2017-08-20T06:12:05.789Z,14.7
2017-08-20T06:13:05.468Z,14.7
2017-08-20T06:14:04.535Z,14.7
2017-08-20T06:15:03.599Z,14.7
2017-08-20T06:16:03.282Z,14.7
2017-08-20T06:17:02.952Z,14.7
2017-08-20T06:18:01.624Z,14.7
2017-08-20T06:19:00.707Z,14.8
2017-08-20T06:19:59.774Z,14.8
2017-08-20T06:20:59.461Z,14.8
2017-08-20T06:21:58.640Z,14.8
2017-08-20T06:22:57.588Z,14.8
2017-08-20T06:23:57.271Z,14.8
2017-08-20T06:24:56.496Z,14.9
2017-08-20T06:25:55.551Z,14.9
2017-08-20T06:26:54.733Z,14.9
2017-08-20T06:27:53.910Z,14.9
2017-08-20T06:28:53.611Z,14.9
2017-08-20T06:29:52.669Z,14.9
2017-08-20T06:30:51.850Z,15
2017-08-20T06:31:51.037Z,15
2017-08-20T06:32:50.371Z,15
2017-08-20T06:33:49.553Z,15
2017-08-20T06:34:48.736Z,15.1
2017-08-20T06:35:47.916Z,15
2017-08-20T06:37:46.491Z,15
2017-08-20T06:38:45.671Z,15
2017-08-20T06:40:44.627Z,15.1
2017-08-20T06:41:43.460Z,15.1
2017-08-20T06:42:42.913Z,15.2
2017-08-20T06:43:42.120Z,15.3
2017-08-20T06:44:41.212Z,15.4
2017-08-20T06:47:39.056Z,15.4
2017-08-20T06:48:38.499Z,15.5
2017-08-20T06:49:37.556Z,15.5
2017-08-20T06:50:37.120Z,15.4
2017-08-20T06:51:36.174Z,15.4
2017-08-20T06:52:35.234Z,15.4
2017-08-20T06:53:34.820Z,15.5
2017-08-20T06:54:34.004Z,15.5
2017-08-20T06:55:33.180Z,15.5
2017-08-20T06:56:32.261Z,15.5
2017-08-20T06:57:31.973Z,15.5
2017-08-20T06:58:31.032Z,15.5
2017-08-20T06:59:30.471Z,15.5
2017-08-20T07:00:29.661Z,15.5
2017-08-20T07:01:28.841Z,15.5
2017-08-20T07:02:28.009Z,15.5
2017-08-20T07:03:27.191Z,15.5
2017-08-20T07:04:26.876Z,15.6
2017-08-20T07:06:25.339Z,15.6
2017-08-20T07:07:24.522Z,15.6
2017-08-20T07:09:22.856Z,15.7
2017-08-20T07:10:22.424Z,15.7
2017-08-20T07:11:21.603Z,15.7
2017-08-20T07:12:20.785Z,15.7
2017-08-20T07:13:19.960Z,15.8
2017-08-20T07:14:19.155Z,15.8
2017-08-20T07:16:17.721Z,15.8
2017-08-20T07:17:16.901Z,15.8
2017-08-20T07:18:16.353Z,15.9
2017-08-20T07:19:15.560Z,15.9
2017-08-20T07:20:14.737Z,16
2017-08-20T07:21:14.424Z,16
2017-08-20T07:22:13.598Z,16
2017-08-20T07:23:12.675Z,16
2017-08-20T07:24:11.739Z,16
2017-08-20T07:25:11.421Z,16
2017-08-20T07:26:10.473Z,16.1
2017-08-20T07:27:09.651Z,16.1
2017-08-20T07:28:09.212Z,16.1
2017-08-20T07:29:08.168Z,16.1
2017-08-20T07:30:07.736Z,16.2
2017-08-20T07:31:07.089Z,16.2
2017-08-20T07:32:06.154Z,16.2
2017-08-20T07:33:05.482Z,16.2
2017-08-20T07:34:04.546Z,16.3
2017-08-20T07:35:03.991Z,16.3
2017-08-20T07:36:03.171Z,16.3
2017-08-20T07:37:02.854Z,16.3
2017-08-20T07:38:01.910Z,16.4
2017-08-20T07:39:01.099Z,16.4
2017-08-20T07:40:00.275Z,16.4
2017-08-20T07:41:58.841Z,16.5
2017-08-20T07:42:58.531Z,16.6
2017-08-20T07:43:57.593Z,16.7
2017-08-20T07:44:56.776Z,16.7
2017-08-20T07:45:56.231Z,16.7
2017-08-20T07:46:55.412Z,16.7
2017-08-20T07:47:54.587Z,16.8
2017-08-20T07:48:53.649Z,16.9
2017-08-20T07:49:53.390Z,16.9
2017-08-20T07:50:52.566Z,17
2017-08-20T07:51:51.632Z,17.1
2017-08-20T07:53:50.209Z,17.2
2017-08-20T07:54:49.653Z,17.2
2017-08-20T07:55:48.829Z,17.2
2017-08-20T07:56:48.393Z,17.2
2017-08-20T07:57:47.449Z,17.3
2017-08-20T07:58:46.625Z,17.3
2017-08-20T07:59:45.952Z,17.3
2017-08-20T08:00:45.516Z,17.2
2017-08-20T08:01:44.574Z,17.2
2017-08-20T08:02:44.267Z,17.2
2017-08-20T08:03:43.333Z,17.2
2017-08-20T08:04:42.426Z,17.3
2017-08-20T08:05:41.753Z,17.3
2017-08-20T08:07:40.708Z,17.4
2017-08-20T08:08:39.655Z,17.5
2017-08-20T08:09:39.220Z,17.4
2017-08-20T08:10:38.278Z,17.5
2017-08-20T08:11:37.737Z,17.5
2017-08-20T08:13:36.307Z,17.5
2017-08-20T08:15:34.759Z,17.5
2017-08-20T08:16:34.323Z,17.6
2017-08-20T08:17:33.771Z,17.6
2017-08-20T08:18:32.832Z,17.6
2017-08-20T08:20:31.162Z,17.7
2017-08-20T08:21:30.605Z,17.7
2017-08-20T08:22:01.098Z,17.7
2017-08-20T08:22:31.476Z,17.7
2017-08-20T08:23:01.975Z,17.7
2017-08-20T08:24:28.837Z,17.7
2017-08-20T08:25:28.018Z,17.7
2017-08-20T08:26:27.078Z,17.7
2017-08-20T08:27:26.646Z,17.7
2017-08-20T08:28:25.709Z,17.8
2017-08-20T08:29:25.395Z,17.8
2017-08-20T08:30:24.587Z,17.7
2017-08-20T08:31:23.776Z,17.8
2017-08-20T08:32:22.835Z,17.8
2017-08-20T08:34:21.665Z,17.8
2017-08-20T08:35:20.864Z,17.8
2017-08-20T08:36:20.313Z,17.8
2017-08-20T08:37:19.754Z,17.8
2017-08-20T08:38:19.204Z,17.8
2017-08-20T08:39:18.381Z,17.7
2017-08-20T08:40:17.560Z,17.7
2017-08-20T08:40:48.049Z,17.7
2017-08-20T08:42:16.426Z,17.6
2017-08-20T08:43:15.602Z,17.6
2017-08-20T08:45:14.168Z,17.6
2017-08-20T08:46:13.616Z,17.6
2017-08-20T08:47:12.789Z,17.6
2017-08-20T08:48:12.349Z,17.6
2017-08-20T08:49:11.527Z,17.6
2017-08-20T08:50:10.698Z,17.6
2017-08-20T08:51:09.763Z,17.6
2017-08-20T08:52:09.213Z,17.7
2017-08-20T08:53:08.894Z,17.7
2017-08-20T08:54:08.072Z,17.7
2017-08-20T08:55:07.131Z,17.8
2017-08-20T08:56:06.697Z,17.8
2017-08-20T08:57:05.646Z,17.9
2017-08-20T08:58:05.208Z,17.9
2017-08-20T08:59:04.782Z,18
2017-08-20T09:00:03.800Z,18.1
2017-08-20T09:01:03.380Z,18.2
2017-08-20T09:02:02.557Z,18.4
2017-08-20T09:03:01.738Z,18.4
2017-08-20T09:04:01.416Z,18.4
2017-08-20T09:05:00.479Z,18.4
2017-08-20T09:05:59.922Z,18.4
2017-08-20T09:06:58.981Z,18.5
2017-08-20T09:07:58.535Z,18.5
2017-08-20T09:08:57.710Z,18.5
2017-08-20T09:09:57.388Z,18.6
2017-08-20T09:10:56.562Z,18.6
2017-08-20T09:11:55.636Z,18.6
2017-08-20T09:12:55.327Z,18.5
2017-08-20T09:13:54.515Z,18.5
2017-08-20T09:14:53.699Z,18.5
2017-08-20T09:15:53.383Z,18.5
2017-08-20T09:16:52.445Z,18.5
2017-08-20T09:17:51.891Z,18.6
2017-08-20T09:18:50.965Z,18.6
2017-08-20T09:19:50.526Z,18.6
2017-08-20T09:20:49.594Z,18.5
2017-08-20T09:21:49.278Z,18.3
2017-08-20T09:22:48.341Z,18.3
2017-08-20T09:23:47.905Z,18.2
2017-08-20T09:24:46.961Z,18.1
2017-08-20T09:25:46.526Z,18
2017-08-20T09:26:45.849Z,18
2017-08-20T09:27:45.026Z,18
2017-08-20T09:28:44.592Z,17.9
2017-08-20T09:30:43.157Z,17.9
2017-08-20T09:31:42.598Z,17.9
2017-08-20T09:33:40.704Z,17.9
2017-08-20T09:34:40.150Z,18
2017-08-20T09:35:39.599Z,18
2017-08-20T09:36:39.051Z,18.1
2017-08-20T09:37:38.612Z,18.2
2017-08-20T09:38:37.555Z,18.3
2017-08-20T09:39:37.242Z,18.4
2017-08-20T09:40:36.418Z,18.4
2017-08-20T09:41:35.868Z,18.4
2017-08-20T09:42:35.057Z,18.4
2017-08-20T09:43:34.117Z,18.4
2017-08-20T09:44:33.682Z,18.3
2017-08-20T09:45:33.013Z,18.3
2017-08-20T09:46:32.459Z,18.3
2017-08-20T09:47:31.908Z,18.3
2017-08-20T09:48:31.231Z,18.2
2017-08-20T09:49:30.411Z,18.2
2017-08-20T09:50:29.865Z,18.1
2017-08-20T09:51:29.043Z,18.1
2017-08-20T09:52:28.728Z,18.1
2017-08-20T09:53:27.918Z,18.1
2017-08-20T09:54:27.098Z,18.1
2017-08-20T09:55:26.278Z,18.1
2017-08-20T09:56:25.958Z,18.1
2017-08-20T09:57:25.019Z,18.1
2017-08-20T09:58:24.596Z,18
2017-08-20T09:59:23.775Z,18
2017-08-20T10:00:22.959Z,18
2017-08-20T10:01:22.652Z,18
2017-08-20T10:02:21.978Z,18
2017-08-20T10:03:21.158Z,18
2017-08-20T10:04:21.826Z,18
2017-08-20T10:05:19.785Z,18
2017-08-20T10:06:18.971Z,18
2017-08-20T10:08:18.036Z,18.1
2017-08-20T10:09:16.999Z,18.1
2017-08-20T10:10:16.557Z,18.1
2017-08-20T10:11:15.737Z,18.2
2017-08-20T10:12:15.422Z,18.2
2017-08-20T10:13:14.487Z,18.2
2017-08-20T10:14:13.941Z,18.2
2017-08-20T10:15:13.005Z,18.2
2017-08-20T10:16:12.689Z,18.2
2017-08-20T10:17:11.772Z,18.2
2017-08-20T10:18:11.353Z,18.1
2017-08-20T10:20:09.817Z,18.3
2017-08-20T10:21:09.013Z,18.3
2017-08-20T10:22:08.599Z,18.4
2017-08-20T10:23:07.674Z,18.3
2017-08-20T10:24:07.150Z,18.3
2017-08-20T10:25:06.337Z,18.4
2017-08-20T10:26:05.918Z,18.4
2017-08-20T10:27:05.086Z,18.4
2017-08-20T10:28:04.795Z,18.4
2017-08-20T10:29:03.760Z,18.4
2017-08-20T10:30:03.335Z,18.5
2017-08-20T10:31:02.538Z,18.5
2017-08-20T10:32:01.810Z,18.6
2017-08-20T10:33:01.503Z,18.7
2017-08-20T10:34:00.590Z,18.8
2017-08-20T10:34:59.805Z,18.9
2017-08-20T10:35:59.507Z,19
2017-08-20T10:36:58.593Z,19.1
2017-08-20T10:37:57.785Z,19.3
2017-08-20T10:38:57.357Z,19.3
2017-08-20T10:39:56.538Z,19.3
2017-08-20T10:41:55.125Z,19.3
2017-08-20T10:42:54.709Z,19.2
2017-08-20T10:43:53.901Z,19.1
2017-08-20T10:44:53.480Z,19.1
2017-08-20T10:45:52.678Z,19
2017-08-20T10:46:52.140Z,19
2017-08-20T10:48:50.588Z,19
2017-08-20T10:49:50.160Z,19
2017-08-20T10:50:49.238Z,19
2017-08-20T10:51:48.828Z,18.9
2017-08-20T10:52:48.398Z,18.9
2017-08-20T10:53:47.488Z,18.9
2017-08-20T10:54:46.699Z,18.8
2017-08-20T10:55:46.390Z,18.8
2017-08-20T10:56:45.584Z,18.8
2017-08-20T10:57:44.534Z,18.9
2017-08-20T10:59:43.630Z,18.9
2017-08-20T11:00:14.011Z,18.9
2017-08-20T11:01:42.283Z,19
2017-08-20T11:02:41.622Z,19
2017-08-20T11:03:40.803Z,19
2017-08-20T11:04:40.268Z,19
2017-08-20T11:05:39.840Z,19.1
2017-08-20T11:06:38.921Z,19.1
2017-08-20T11:07:38.264Z,19.2
2017-08-20T11:09:37.231Z,19.3
2017-08-20T11:10:36.685Z,19.3
2017-08-20T11:11:35.879Z,19.4
2017-08-20T11:12:35.081Z,19.4
2017-08-20T11:13:34.282Z,19.4
2017-08-20T11:14:33.860Z,19.4
2017-08-20T11:15:33.321Z,19.4
2017-08-20T11:16:32.512Z,19.4
2017-08-20T11:18:31.249Z,19.3
2017-08-20T11:19:30.452Z,19.3
2017-08-20T11:20:29.912Z,19.3
2017-08-20T11:21:29.106Z,19.4
2017-08-20T11:22:28.697Z,19.3
2017-08-20T11:24:27.278Z,19.3
2017-08-20T11:25:26.729Z,19.3
2017-08-20T11:26:25.930Z,19.3
2017-08-20T11:27:25.266Z,19.2
2017-08-20T11:28:24.840Z,19.2
2017-08-20T11:29:24.030Z,19.2
2017-08-20T11:30:23.736Z,19.1
2017-08-20T11:31:22.814Z,19.2
2017-08-20T11:32:21.769Z,19.3
2017-08-20T11:33:21.848Z,19.5
2017-08-20T11:34:20.795Z,19.6
2017-08-20T11:35:20.377Z,19.8
2017-08-20T11:36:19.561Z,19.9
2017-08-20T11:37:19.023Z,20.1
2017-08-20T11:38:18.595Z,20.2
2017-08-20T11:39:17.662Z,20.3
2017-08-20T11:40:17.135Z,20.4
2017-08-20T11:41:16.215Z,20.4
2017-08-20T11:42:15.797Z,20.5
2017-08-20T11:43:14.998Z,20.6
2017-08-20T11:44:14.590Z,20.7
2017-08-20T11:46:13.182Z,20.5
2017-08-20T11:47:12.785Z,20.4
2017-08-20T11:48:11.990Z,20.4
2017-08-20T11:49:11.184Z,20.4
2017-08-20T11:50:10.774Z,20.4
2017-08-20T11:51:09.959Z,20.5
2017-08-20T11:52:09.540Z,20.4
2017-08-20T11:53:08.746Z,20.5
2017-08-20T11:54:08.489Z,20.6
2017-08-20T11:55:07.691Z,20.6
2017-08-20T11:57:06.266Z,20.7
2017-08-20T11:58:05.969Z,20.7
2017-08-20T11:59:05.032Z,20.6
2017-08-20T12:00:04.724Z,20.5
2017-08-20T12:01:03.681Z,20.5
2017-08-20T12:02:03.379Z,20.2
2017-08-20T12:03:02.575Z,20.1
2017-08-20T12:04:02.155Z,20
2017-08-20T12:05:01.226Z,19.9
2017-08-20T12:06:00.828Z,20
2017-08-20T12:07:00.404Z,19.9
2017-08-20T12:07:59.511Z,19.9
2017-08-20T12:08:59.198Z,19.8
2017-08-20T12:09:58.279Z,19.8
2017-08-20T12:10:57.344Z,19.8
2017-08-20T12:11:56.804Z,19.7
2017-08-20T12:12:56.394Z,19.3
2017-08-20T12:13:55.980Z,19.1
2017-08-20T12:14:55.047Z,18.9
2017-08-20T12:15:54.512Z,18.8
2017-08-20T12:16:54.200Z,18.5
2017-08-20T12:17:53.403Z,18.4
2017-08-20T12:18:52.592Z,18.4
2017-08-20T12:19:52.170Z,18.3
2017-08-20T12:20:51.249Z,18.2
2017-08-20T12:21:50.947Z,18.2
2017-08-20T12:22:50.030Z,18.1
2017-08-20T12:23:49.493Z,18.1
2017-08-20T12:24:49.076Z,18.1
2017-08-20T12:25:48.138Z,18.1
2017-08-20T12:26:47.841Z,18.2
2017-08-20T12:27:47.045Z,18.1
2017-08-20T12:28:46.130Z,18.2
2017-08-20T12:29:45.727Z,18.2
2017-08-20T12:30:45.193Z,18.2
2017-08-20T12:31:44.145Z,18.1
2017-08-20T12:32:43.597Z,18.1
2017-08-20T12:33:43.053Z,18.1
2017-08-20T12:34:42.396Z,18.1
2017-08-20T12:35:41.752Z,18.1
2017-08-20T12:36:41.326Z,18.1
2017-08-20T12:37:40.407Z,18.1
2017-08-20T12:38:39.989Z,18.1
2017-08-20T12:39:39.065Z,18.1
2017-08-20T12:40:38.643Z,18.1
2017-08-20T12:41:38.104Z,18.1
2017-08-20T12:42:37.173Z,18.2
2017-08-20T12:43:36.862Z,18.2
2017-08-20T12:47:34.231Z,18.3
2017-08-20T12:48:33.059Z,18.4
2017-08-20T12:49:32.515Z,18.4
2017-08-20T12:50:32.096Z,18.4
2017-08-20T12:51:31.545Z,18.4
2017-08-20T12:52:31.007Z,18.4
2017-08-20T12:53:30.185Z,18.4
2017-08-20T12:54:29.528Z,18.3
2017-08-20T12:55:28.714Z,18.3
2017-08-20T12:56:28.404Z,18.3
2017-08-20T12:57:27.485Z,18.3
2017-08-20T12:58:27.180Z,18.2
2017-08-20T12:59:26.150Z,18.2
2017-08-20T13:00:25.735Z,18.3
2017-08-20T13:01:25.311Z,18.3
2017-08-20T13:02:24.382Z,18.3
2017-08-20T13:03:23.833Z,18.3
2017-08-20T13:04:23.028Z,18.4
2017-08-20T13:05:22.356Z,18.4
2017-08-20T13:06:22.060Z,18.4
2017-08-20T13:07:21.252Z,18.4
2017-08-20T13:08:20.313Z,18.4
2017-08-20T13:09:19.893Z,18.4
2017-08-20T13:10:19.457Z,18.4
2017-08-20T13:11:18.657Z,18.3
2017-08-20T13:12:17.843Z,18.3
2017-08-20T13:13:16.916Z,18.3
2017-08-20T13:14:16.517Z,18.3
2017-08-20T13:15:15.968Z,18.3
2017-08-20T13:16:15.149Z,18.3
2017-08-20T13:17:14.841Z,18.3
2017-08-20T13:18:14.039Z,18.2
2017-08-20T13:19:13.226Z,18.3
2017-08-20T13:20:12.924Z,18.3
2017-08-20T13:21:12.000Z,18.3
2017-08-20T13:22:11.183Z,18.3
2017-08-20T13:23:10.766Z,18.3
2017-08-20T13:24:10.107Z,18.3
2017-08-20T13:25:09.448Z,18.2
2017-08-20T13:26:09.009Z,18.2
2017-08-20T13:27:08.085Z,18.2
2017-08-20T13:28:07.666Z,18.2
2017-08-20T13:29:06.756Z,18.2
2017-08-20T13:30:05.997Z,18.2
2017-08-20T13:31:05.694Z,18.2
2017-08-20T13:32:04.891Z,18.2
2017-08-20T13:33:03.980Z,18.2
2017-08-20T13:34:03.560Z,18.2
2017-08-20T13:35:02.765Z,18.2
2017-08-20T13:36:02.095Z,18.3
2017-08-20T13:37:01.680Z,18.3
2017-08-20T13:38:00.892Z,18.3
2017-08-20T13:39:59.862Z,18.3
2017-08-20T13:40:58.934Z,18.3
2017-08-20T13:41:58.124Z,18.2
2017-08-20T13:42:57.819Z,18.2
2017-08-20T13:43:56.813Z,18.2
2017-08-20T13:44:56.505Z,18.2
2017-08-20T13:45:55.694Z,18.1
2017-08-20T13:46:55.034Z,18.1
2017-08-20T13:47:54.233Z,18.1
2017-08-20T13:48:53.939Z,18.1
2017-08-20T13:49:53.002Z,18.1
2017-08-20T13:50:52.215Z,18.1
2017-08-20T13:51:51.901Z,18.2
2017-08-20T13:52:51.090Z,18.2
2017-08-20T13:53:50.289Z,18.2
2017-08-20T13:54:50.006Z,18.2
2017-08-20T13:56:48.472Z,18.3
2017-08-20T13:57:47.670Z,18.3
2017-08-20T13:58:47.241Z,18.3
2017-08-20T13:59:46.438Z,18.3
2017-08-20T14:00:45.630Z,18.3
2017-08-20T14:01:45.331Z,18.3
2017-08-20T14:02:44.407Z,18.3
2017-08-20T14:03:43.490Z,18.3
2017-08-20T14:04:42.954Z,18.4
2017-08-20T14:05:42.654Z,18.4
2017-08-20T14:06:41.732Z,18.4
2017-08-20T14:07:41.436Z,18.4
2017-08-20T14:08:40.643Z,18.4
2017-08-20T14:09:39.845Z,18.5
2017-08-20T14:10:10.115Z,18.5
2017-08-20T14:11:38.504Z,18.6
2017-08-20T14:12:37.971Z,18.6
2017-08-20T14:13:36.935Z,18.7
2017-08-20T14:15:35.771Z,18.7
2017-08-20T14:16:35.469Z,18.8
2017-08-20T14:17:34.304Z,18.8
2017-08-20T14:18:34.001Z,18.9
2017-08-20T14:19:33.099Z,19.1
2017-08-20T14:20:32.674Z,19.2
2017-08-20T14:21:32.119Z,19.1
2017-08-20T14:22:31.312Z,19